Time;durP1;ratioP1;P1;durP2;ratioP2;P2;SDS_P1;SDS_P2;PMS_P1;PMS_P2;Temp;Humidity;BMP_temperature;BMP_pressure;BME280_temperature;BME280_humidity;BME280_pressure;Samples;Min_cycle;Max_cycle;Signal;HPM_P1;HPM_P2
2022/07/03 00:01:58;;;;;;;1999.90;811.47;;;17.60;99.90;;;;;;5065664;28;20032;-80
2022/07/03 00:04:23;;;;;;;1999.90;951.38;;;17.60;99.90;;;;;;5065569;28;20113;-80
2022/07/03 00:06:49;;;;;;;1999.90;999.90;;;17.50;99.90;;;;;;5068588;28;20048;-79
2022/07/03 00:09:18;;;;;;;1999.90;936.13;;;17.50;99.90;;;;;;5067858;28;20175;-91
2022/07/03 00:11:44;;;;;;;1999.90;777.55;;;17.50;99.90;;;;;;5069053;28;20051;-79
2022/07/03 00:14:10;;;;;;;1999.90;998.20;;;17.50;99.90;;;;;;5068159;28;20040;-78
2022/07/03 00:16:36;;;;;;;1999.90;999.90;;;17.50;99.90;;;;;;5066521;28;20045;-82
2022/07/03 00:19:02;;;;;;;1999.90;999.90;;;17.50;99.90;;;;;;5063376;28;20043;-79
2022/07/03 00:21:31;;;;;;;1999.90;999.90;;;17.50;99.90;;;;;;5065533;28;20123;-79
2022/07/03 00:24:20;;;;;;;1999.90;999.90;;;17.50;99.90;;;;;;5070427;28;20041;-79
2022/07/03 00:26:50;;;;;;;1999.90;908.75;;;17.40;99.90;;;;;;5050144;28;20147;-79
2022/07/03 00:29:18;;;;;;;1999.90;999.90;;;17.30;99.90;;;;;;5068675;28;20040;-79
2022/07/03 00:31:44;;;;;;;1999.90;999.90;;;17.30;99.90;;;;;;5049318;28;20074;-78
2022/07/03 00:34:12;;;;;;;1999.90;999.90;;;17.30;99.90;;;;;;5051520;28;20074;-80
2022/07/03 00:36:38;;;;;;;1999.90;813.42;;;17.30;99.90;;;;;;5067591;28;20044;-79
2022/07/03 00:39:05;;;;;;;1999.90;986.17;;;17.30;99.90;;;;;;5067204;28;20045;-79
2022/07/03 00:41:34;;;;;;;1999.90;999.90;;;17.20;99.90;;;;;;5073248;28;20061;-80
2022/07/03 00:44:00;;;;;;;1999.90;999.90;;;17.10;99.90;;;;;;5065680;28;20055;-79
2022/07/03 00:46:27;;;;;;;1999.90;999.90;;;17.10;99.90;;;;;;5053938;28;20392;-81
2022/07/03 00:48:54;;;;;;;1999.90;999.90;;;17.00;99.90;;;;;;5069641;28;20054;-83
2022/07/03 00:51:29;;;;;;;1999.90;999.90;;;16.90;99.90;;;;;;5062087;28;20143;-79
2022/07/03 00:53:56;;;;;;;1999.90;999.90;;;16.90;99.90;;;;;;5052544;28;20044;-80
2022/07/03 00:56:27;;;;;;;1999.90;999.90;;;16.90;99.90;;;;;;5069916;28;20120;-80
2022/07/03 00:58:57;;;;;;;1999.90;999.90;;;16.80;99.90;;;;;;5049382;28;20048;-80
2022/07/03 01:01:28;;;;;;;1999.90;999.90;;;16.80;99.90;;;;;;5067990;28;20037;-82
2022/07/03 01:04:04;;;;;;;1999.90;999.90;;;16.70;99.90;;;;;;5067749;28;20079;-79
2022/07/03 01:06:35;;;;;;;1999.90;999.90;;;16.70;99.90;;;;;;5101148;28;20142;-80
2022/07/03 01:09:03;;;;;;;1999.90;999.90;;;16.70;99.90;;;;;;5066837;28;20484;-81
2022/07/03 01:11:38;;;;;;;1999.90;999.90;;;16.70;1.00;;;;;;5065919;28;20483;-88
2022/07/03 01:14:25;;;;;;;1999.90;999.90;;;16.60;1.00;;;;;;5072183;28;20132;-79
2022/07/03 01:17:02;;;;;;;1999.90;999.90;;;16.70;1.00;;;;;;5067781;28;20045;-78
2022/07/03 01:19:41;;;;;;;1999.90;999.90;;;16.60;1.00;;;;;;5070664;28;20080;-84
2022/07/03 01:22:33;;;;;;;1999.90;927.92;;;16.60;1.00;;;;;;5066765;28;20053;-78
2022/07/03 01:25:14;;;;;;;1999.90;999.90;;;16.50;1.00;;;;;;5103584;28;20412;-78
2022/07/03 01:28:05;;;;;;;1999.90;999.90;;;16.50;1.00;;;;;;5070420;28;20047;-80
2022/07/03 01:30:38;;;;;;;1999.90;999.90;;;16.50;1.00;;;;;;5067659;28;20056;-79
2022/07/03 01:33:15;;;;;;;1999.90;999.90;;;16.40;1.00;;;;;;5060259;28;20112;-78
2022/07/03 01:35:46;;;;;;;1999.90;999.90;;;16.40;1.00;;;;;;5067202;28;20065;-80
2022/07/03 01:38:13;;;;;;;1999.90;999.90;;;16.40;1.00;;;;;;5065941;28;20124;-79
2022/07/03 01:40:42;;;;;;;1999.90;999.90;;;16.40;1.00;;;;;;5070014;28;20058;-78
2022/07/03 01:43:10;;;;;;;1999.90;999.90;;;16.30;1.00;;;;;;5071209;28;20403;-79
2022/07/03 01:45:43;;;;;;;1999.90;999.90;;;16.30;1.00;;;;;;5066391;28;20451;-79
2022/07/03 01:48:13;;;;;;;1999.90;999.90;;;16.30;1.00;;;;;;5072307;28;20135;-80
2022/07/03 01:50:42;;;;;;;1999.90;999.90;;;16.20;1.00;;;;;;5067061;28;20055;-80
2022/07/03 01:53:10;;;;;;;1999.90;999.90;;;16.20;1.00;;;;;;5058637;28;20041;-79
2022/07/03 01:55:39;;;;;;;1999.90;999.90;;;16.10;1.00;;;;;;5067469;28;20516;-79
2022/07/03 01:58:05;;;;;;;1999.90;999.90;;;16.10;1.00;;;;;;5067757;28;20044;-79
2022/07/03 02:00:39;;;;;;;1999.90;999.90;;;16.10;1.00;;;;;;5067691;28;20083;-87
2022/07/03 02:03:06;;;;;;;1999.90;999.90;;;16.10;1.00;;;;;;5070665;28;20497;-79
2022/07/03 02:05:47;;;;;;;1999.90;999.90;;;16.10;1.00;;;;;;5071051;28;20045;-91
2022/07/03 02:08:37;;;;;;;1999.90;999.90;;;16.00;1.00;;;;;;5052035;28;20052;-79
2022/07/03 02:11:17;;;;;;;1999.90;999.90;;;16.00;1.00;;;;;;5055838;28;20060;-79
2022/07/03 02:14:19;;;;;;;1999.90;999.90;;;16.00;1.00;;;;;;5066597;28;20461;-80
2022/07/03 02:17:04;;;;;;;1999.90;999.90;;;15.90;1.00;;;;;;5068570;28;20079;-81
2022/07/03 02:20:02;;;;;;;1999.90;999.90;;;15.90;1.00;;;;;;5056674;28;20182;-84
2022/07/03 02:22:33;;;;;;;1999.90;999.90;;;15.90;1.00;;;;;;5076598;28;20043;-79
2022/07/03 02:25:04;;;;;;;1999.90;999.90;;;15.90;1.00;;;;;;5070196;28;20052;-78
2022/07/03 02:27:42;;;;;;;1999.90;999.90;;;15.90;1.00;;;;;;5070104;28;20060;-78
2022/07/03 02:30:10;;;;;;;1999.90;999.90;;;15.80;1.00;;;;;;5067040;28;20048;-78
2022/07/03 02:32:53;;;;;;;1999.90;999.90;;;15.80;1.00;;;;;;5071150;28;20138;-80
2022/07/03 02:35:26;;;;;;;1999.90;999.90;;;15.80;1.00;;;;;;5071149;28;20527;-79
2022/07/03 02:38:06;;;;;;;1999.90;999.90;;;15.80;1.00;;;;;;5058658;28;20044;-79
2022/07/03 02:40:43;;;;;;;1999.90;999.90;;;15.70;1.00;;;;;;5061111;28;20044;-85
2022/07/03 02:43:25;;;;;;;1999.90;999.90;;;15.70;3.70;;;;;;5066795;28;20056;-79
2022/07/03 02:46:48;;;;;;;1999.90;999.90;;;15.70;15.90;;;;;;5068299;28;20075;-78
2022/07/03 02:48:51;;;;;;;1999.90;999.90;;;15.70;40.20;;;;;;5067631;28;20049;-79
2022/07/03 02:51:22;;;;;;;1999.90;999.90;;;15.60;30.00;;;;;;5066376;28;20055;-84
2022/07/03 02:53:59;;;;;;;1999.90;999.90;;;15.60;22.50;;;;;;5069346;28;20076;-79
2022/07/03 02:57:04;;;;;;;1999.90;999.90;;;15.60;20.00;;;;;;5069871;28;20048;-78
2022/07/03 02:59:32;;;;;;;1999.90;999.90;;;15.60;24.30;;;;;;5065084;28;20045;-79
2022/07/03 03:02:07;;;;;;;1999.90;999.90;;;15.60;36.30;;;;;;5064683;28;20556;-78
2022/07/03 03:04:40;;;;;;;1999.90;999.90;;;15.60;23.70;;;;;;5063615;28;20045;-79
2022/07/03 03:07:13;;;;;;;1999.90;999.90;;;15.60;21.70;;;;;;5064519;28;20079;-79
2022/07/03 03:09:43;;;;;;;1999.90;999.90;;;15.50;17.90;;;;;;5065804;28;20045;-78
2022/07/03 03:12:11;;;;;;;1999.90;999.90;;;15.60;23.90;;;;;;5051597;28;20055;-78
2022/07/03 03:14:41;;;;;;;1999.90;999.90;;;15.50;26.50;;;;;;5066055;28;20048;-78
2022/07/03 03:17:10;;;;;;;1999.90;999.90;;;15.50;17.60;;;;;;5064770;28;20373;-78
2022/07/03 03:19:41;;;;;;;1999.90;999.90;;;15.50;17.70;;;;;;5066413;28;20133;-79
2022/07/03 03:22:14;;;;;;;1999.90;999.90;;;15.50;15.40;;;;;;5057796;28;20052;-78
2022/07/03 03:24:40;;;;;;;1999.90;999.90;;;15.50;23.10;;;;;;5102256;28;20059;-78
2022/07/03 03:27:07;;;;;;;1999.90;999.90;;;15.50;28.10;;;;;;5059840;28;20060;-82
2022/07/03 03:29:33;;;;;;;1999.90;999.90;;;15.70;27.50;;;;;;5067072;28;20408;-81
2022/07/03 03:31:59;;;;;;;1999.90;999.90;;;15.60;45.70;;;;;;5066900;28;20474;-79
2022/07/03 03:34:26;;;;;;;1999.90;999.90;;;15.50;27.40;;;;;;5067485;28;20064;-78
2022/07/03 03:36:52;;;;;;;1999.90;999.90;;;15.50;38.70;;;;;;5062697;28;20033;-79
2022/07/03 03:39:17;;;;;;;1999.90;999.90;;;15.50;32.40;;;;;;5059487;28;20044;-79
2022/07/03 03:41:43;;;;;;;1999.90;999.90;;;15.60;30.00;;;;;;5075899;28;20087;-80
2022/07/03 03:44:09;;;;;;;1999.90;999.90;;;15.60;43.70;;;;;;5064540;28;20086;-78
2022/07/03 03:46:34;;;;;;;1999.90;999.90;;;15.60;20.50;;;;;;5067272;28;20131;-78
2022/07/03 03:49:00;;;;;;;1999.90;999.90;;;15.60;6.20;;;;;;5062950;28;20052;-79
2022/07/03 03:51:26;;;;;;;1999.90;968.33;;;15.50;10.00;;;;;;5067476;28;20185;-81
2022/07/03 03:53:52;;;;;;;1999.90;999.90;;;15.60;8.60;;;;;;5057119;28;20486;-78
2022/07/03 03:56:17;;;;;;;1999.90;999.90;;;15.50;12.50;;;;;;5062679;28;20059;-78
2022/07/03 03:58:44;;;;;;;1999.90;999.90;;;15.50;14.20;;;;;;5080368;28;20168;-78
2022/07/03 04:01:10;;;;;;;1999.90;999.90;;;15.50;12.90;;;;;;5057682;28;20122;-80
2022/07/03 04:03:37;;;;;;;1999.90;999.90;;;15.50;13.80;;;;;;5065718;28;20346;-78
2022/07/03 04:06:03;;;;;;;1999.90;930.10;;;15.50;44.70;;;;;;5078760;28;20080;-78
2022/07/03 04:08:30;;;;;;;1999.90;999.90;;;15.40;28.90;;;;;;5067698;28;20125;-78
2022/07/03 04:10:56;;;;;;;1999.90;999.90;;;15.40;23.30;;;;;;5060776;28;20040;-78
2022/07/03 04:13:23;;;;;;;1999.90;999.90;;;15.40;17.60;;;;;;5069478;28;20483;-80
2022/07/03 04:15:50;;;;;;;1999.90;999.90;;;15.40;12.00;;;;;;5067952;28;20071;-78
2022/07/03 04:18:17;;;;;;;1999.90;999.90;;;15.40;15.90;;;;;;5048479;28;20479;-81
2022/07/03 04:20:43;;;;;;;1999.90;999.90;;;15.40;36.70;;;;;;5069410;28;20086;-79
2022/07/03 04:23:09;;;;;;;1999.90;999.90;;;15.40;54.50;;;;;;5068738;28;20446;-78
2022/07/03 04:25:35;;;;;;;1999.90;999.90;;;15.40;59.00;;;;;;5067576;28;20058;-78
2022/07/03 04:28:00;;;;;;;1999.90;999.90;;;15.50;65.60;;;;;;5060735;28;20115;-78
2022/07/03 04:30:27;;;;;;;1999.90;999.90;;;15.50;72.10;;;;;;5061631;28;20090;-78
2022/07/03 04:32:53;;;;;;;1999.90;999.90;;;15.50;52.90;;;;;;5048109;28;20049;-82
2022/07/03 04:35:19;;;;;;;1999.90;999.90;;;15.60;75.90;;;;;;5066953;28;20044;-78
2022/07/03 04:37:45;;;;;;;1999.90;999.90;;;15.60;56.20;;;;;;5055458;28;20040;-78
2022/07/03 04:40:12;;;;;;;1999.90;999.90;;;15.60;46.60;;;;;;5095450;28;20055;-78
2022/07/03 04:42:37;;;;;;;1999.90;999.90;;;15.60;48.80;;;;;;5068807;28;20055;-78
2022/07/03 04:45:03;;;;;;;1999.90;999.90;;;15.60;45.80;;;;;;5067532;28;20044;-78
2022/07/03 04:47:29;;;;;;;1999.90;999.90;;;15.60;51.30;;;;;;5067429;28;20114;-86
2022/07/03 04:49:55;;;;;;;1999.90;999.90;;;15.60;60.00;;;;;;5066490;28;20036;-78
2022/07/03 04:52:21;;;;;;;1999.90;999.90;;;15.70;64.80;;;;;;5067889;28;20128;-78
2022/07/03 04:54:46;;;;;;;1999.90;999.90;;;15.70;77.80;;;;;;5050405;28;20143;-78
2022/07/03 04:57:12;;;;;;;1999.90;999.90;;;15.70;80.00;;;;;;5072056;28;20165;-81
2022/07/03 04:59:37;;;;;;;1999.90;999.90;;;15.60;99.90;;;;;;5096795;28;20499;-79
2022/07/03 05:02:04;;;;;;;1999.90;999.90;;;15.70;96.40;;;;;;5090634;28;20048;-79
2022/07/03 05:04:29;;;;;;;1999.90;999.90;;;15.70;85.40;;;;;;5061894;28;20048;-79
2022/07/03 05:06:55;;;;;;;1999.90;999.90;;;15.80;70.50;;;;;;5067137;28;20150;-80
2022/07/03 05:09:21;;;;;;;1999.90;999.90;;;15.80;70.00;;;;;;5065594;28;20036;-80
2022/07/03 05:11:46;;;;;;;1999.90;999.90;;;15.80;79.20;;;;;;5082233;28;20032;-88
2022/07/03 05:14:12;;;;;;;1999.90;999.90;;;15.80;90.80;;;;;;5069564;28;20041;-78
2022/07/03 05:16:38;;;;;;;1999.90;999.90;;;15.80;95.70;;;;;;5068813;28;20045;-79
2022/07/03 05:19:04;;;;;;;1999.90;999.90;;;15.90;96.00;;;;;;5065758;28;20179;-81
2022/07/03 05:21:30;;;;;;;1999.90;999.90;;;15.90;96.40;;;;;;5063875;28;20060;-78
2022/07/03 05:23:56;;;;;;;1999.90;999.90;;;15.90;99.90;;;;;;5063600;28;20052;-80
2022/07/03 05:26:21;;;;;;;1999.90;999.90;;;16.00;99.90;;;;;;5098219;28;20075;-78
2022/07/03 05:28:47;;;;;;;1999.90;999.90;;;16.00;99.90;;;;;;5074213;28;20055;-78
2022/07/03 05:31:13;;;;;;;1999.90;999.90;;;16.10;99.90;;;;;;5065782;28;20117;-79
2022/07/03 05:33:39;;;;;;;1999.90;999.90;;;16.10;99.90;;;;;;5062428;28;20143;-78
2022/07/03 05:36:05;;;;;;;1999.90;999.90;;;16.10;99.90;;;;;;5069033;28;20138;-79
2022/07/03 05:41:16;;;;;;;1999.90;999.90;;;16.30;99.90;;;;;;5067674;28;20063;-81
2022/07/03 05:43:41;;;;;;;1999.90;999.90;;;16.40;99.90;;;;;;5066717;28;20049;-79
2022/07/03 05:46:07;;;;;;;1999.90;999.90;;;16.50;99.90;;;;;;5071453;28;20040;-78
2022/07/03 05:48:33;;;;;;;1999.90;999.90;;;16.80;99.90;;;;;;5070567;28;20461;-80
2022/07/03 05:50:59;;;;;;;1999.90;999.90;;;17.20;99.90;;;;;;5068422;28;20123;-78
2022/07/03 05:53:25;;;;;;;1999.90;999.90;;;17.50;84.40;;;;;;5066927;28;20610;-79
2022/07/03 05:55:50;;;;;;;1999.90;999.90;;;17.70;1.00;;;;;;5069340;28;20040;-80
2022/07/03 05:58:16;;;;;;;1999.90;999.90;;;17.90;1.00;;;;;;5069940;28;20044;-79
2022/07/03 06:00:42;;;;;;;1999.90;964.97;;;18.10;1.00;;;;;;5068118;28;20143;-79
2022/07/03 06:03:08;;;;;;;1999.90;999.90;;;18.30;1.00;;;;;;5069144;28;22059;-80
2022/07/03 06:05:34;;;;;;;1999.90;999.90;;;18.30;1.00;;;;;;5064871;28;20037;-79
2022/07/03 06:08:00;;;;;;;1513.72;999.90;;;18.50;99.90;;;;;;5065903;28;20055;-79
2022/07/03 06:10:27;;;;;;;1999.90;999.90;;;18.60;99.90;;;;;;5052996;28;20036;-79
2022/07/03 06:12:53;;;;;;;1244.97;996.88;;;18.80;99.90;;;;;;5071712;28;20056;-79
2022/07/03 06:15:19;;;;;;;1058.80;948.85;;;18.90;99.90;;;;;;5070349;28;20147;-80
2022/07/03 06:17:45;;;;;;;1075.72;954.38;;;18.90;99.90;;;;;;5072924;28;20127;-79
2022/07/03 06:20:11;;;;;;;1076.82;937.83;;;18.80;99.90;;;;;;5067391;28;20357;-84
2022/07/03 06:22:37;;;;;;;991.15;878.75;;;18.80;99.90;;;;;;5096186;28;20481;-79
2022/07/03 06:25:04;;;;;;;1063.68;945.80;;;18.90;99.90;;;;;;5069317;28;20503;-81
2022/07/03 06:27:29;;;;;;;1070.15;916.85;;;18.90;99.90;;;;;;5059466;28;20052;-80
2022/07/03 06:29:55;;;;;;;1108.75;937.50;;;18.90;99.90;;;;;;5064254;28;20040;-80
2022/07/03 06:32:21;;;;;;;1007.22;897.13;;;19.00;99.90;;;;;;5102095;28;20123;-80
2022/07/03 06:34:47;;;;;;;1001.22;874.35;;;19.20;99.90;;;;;;5100196;28;20369;-80
2022/07/03 06:37:13;;;;;;;1209.38;956.28;;;19.30;99.90;;;;;;5072475;28;20048;-81
2022/07/03 06:39:39;;;;;;;1027.55;914.53;;;19.30;99.90;;;;;;5069388;28;20044;-81
2022/07/03 06:42:05;;;;;;;990.72;886.30;;;19.50;99.90;;;;;;5066977;28;20056;-87
2022/07/03 06:44:31;;;;;;;1033.13;895.22;;;19.60;99.90;;;;;;5063962;28;20045;-81
2022/07/03 06:46:57;;;;;;;988.17;872.65;;;19.50;99.90;;;;;;5092196;28;20360;-82
2022/07/03 06:49:23;;;;;;;1296.35;931.15;;;19.60;99.90;;;;;;5100438;28;20434;-80
2022/07/03 06:51:49;;;;;;;941.67;842.25;;;19.80;99.90;;;;;;5068602;28;20047;-81
2022/07/03 06:54:15;;;;;;;929.33;836.63;;;20.00;36.80;;;;;;5071156;28;20040;-80
2022/07/03 06:56:42;;;;;;;1007.60;888.20;;;20.10;62.60;;;;;;5091682;28;20059;-80
2022/07/03 06:59:08;;;;;;;888.28;802.47;;;20.10;35.10;;;;;;5085850;28;20131;-80
2022/07/03 07:01:34;;;;;;;960.00;861.60;;;19.90;9.00;;;;;;5071061;28;20093;-80
2022/07/03 07:04:00;;;;;;;817.92;727.67;;;20.00;7.00;;;;;;5070990;28;20044;-81
2022/07/03 07:06:26;;;;;;;611.38;556.50;;;20.10;35.30;;;;;;5067161;28;20045;-80
2022/07/03 07:08:51;;;;;;;887.28;807.42;;;20.30;14.30;;;;;;5069797;28;20413;-81
2022/07/03 07:11:17;;;;;;;851.67;773.35;;;20.50;15.00;;;;;;5067112;28;20109;-83
2022/07/03 07:13:43;;;;;;;703.63;646.00;;;20.90;1.00;;;;;;5100256;28;20469;-84
2022/07/03 07:16:09;;;;;;;645.25;594.50;;;21.80;1.00;;;;;;5068420;28;20041;-84
2022/07/03 07:18:34;;;;;;;676.80;623.47;;;22.50;1.00;;;;;;5068550;28;20048;-82
2022/07/03 07:21:02;;;;;;;698.03;636.20;;;22.60;1.00;;;;;;5067574;28;20079;-80
2022/07/03 07:23:28;;;;;;;769.20;706.17;;;22.30;1.00;;;;;;5057525;28;20040;-78
2022/07/03 07:25:54;;;;;;;1042.15;951.35;;;22.00;1.00;;;;;;5090062;28;20497;-79
2022/07/03 07:28:19;;;;;;;1095.07;993.47;;;22.70;1.00;;;;;;5064856;28;20048;-80
2022/07/03 07:30:45;;;;;;;1063.97;971.92;;;23.10;1.00;;;;;;5070570;28;20495;-79
2022/07/03 07:33:11;;;;;;;1135.78;999.90;;;23.30;1.00;;;;;;5065616;28;20076;-80
2022/07/03 07:35:37;;;;;;;1484.05;938.40;;;23.80;99.90;;;;;;5069133;28;20400;-79
2022/07/03 07:38:02;;;;;;;1999.90;999.90;;;24.10;99.90;;;;;;5066867;28;20066;-79
2022/07/03 07:40:28;;;;;;;1999.90;999.90;;;24.00;99.90;;;;;;5068460;28;20090;-78
2022/07/03 07:42:54;;;;;;;1999.90;999.90;;;24.10;99.90;;;;;;5056178;28;20090;-82
2022/07/03 07:45:20;;;;;;;1999.90;999.90;;;24.60;99.90;;;;;;5078967;28;20044;-80
2022/07/03 07:47:45;;;;;;;1999.90;999.90;;;24.90;99.90;;;;;;5034475;28;20068;-80
2022/07/03 07:50:11;;;;;;;1165.15;866.00;;;25.60;99.90;;;;;;5067665;28;20072;-81
2022/07/03 07:52:37;;;;;;;886.75;821.33;;;25.80;99.90;;;;;;5065835;28;20083;-80
2022/07/03 07:55:05;;;;;;;957.47;881.03;;;26.00;99.90;;;;;;5063983;28;20056;-80
2022/07/03 07:57:40;;;;;;;941.83;867.28;;;25.40;99.90;;;;;;5068585;28;20149;-80
2022/07/03 08:00:12;;;;;;;896.25;829.35;;;25.70;99.90;;;;;;5067811;28;20134;-80
2022/07/03 08:05:35;;;;;;;899.13;831.95;;;26.70;99.90;;;;;;5062524;28;20480;-81
2022/07/03 08:08:11;;;;;;;881.88;816.90;;;26.30;99.90;;;;;;5048825;28;20323;-80
2022/07/03 08:10:41;;;;;;;892.33;824.88;;;26.30;99.90;;;;;;5059743;28;20045;-81
2022/07/03 08:13:07;;;;;;;906.22;835.08;;;26.40;99.90;;;;;;5064755;28;20405;-81
2022/07/03 08:15:33;;;;;;;927.90;856.35;;;26.60;99.90;;;;;;5064693;28;20055;-80
2022/07/03 08:17:59;;;;;;;885.15;813.40;;;26.30;99.90;;;;;;5071683;28;20053;-84
2022/07/03 08:20:25;;;;;;;907.80;836.05;;;26.90;99.90;;;;;;5083113;28;20408;-80
2022/07/03 08:22:51;;;;;;;893.30;826.08;;;27.30;99.90;;;;;;5073626;28;20129;-83
2022/07/03 08:25:18;;;;;;;961.13;880.65;;;28.00;99.90;;;;;;5054700;28;20050;-81
2022/07/03 08:27:44;;;;;;;902.75;834.63;;;28.20;99.90;;;;;;5069484;28;20055;-81
2022/07/03 08:30:10;;;;;;;929.55;853.95;;;28.40;99.90;;;;;;5070560;28;20041;-81
2022/07/03 08:32:36;;;;;;;972.35;885.63;;;28.00;99.90;;;;;;5065757;28;20404;-82
2022/07/03 08:35:02;;;;;;;1011.70;918.25;;;27.90;99.90;;;;;;5050248;28;20130;-81
2022/07/03 08:37:28;;;;;;;900.92;828.38;;;26.30;99.90;;;;;;5079649;28;20036;-81
2022/07/03 08:39:53;;;;;;;938.45;858.03;;;25.40;99.90;;;;;;5090655;28;20078;-81
2022/07/03 08:42:21;;;;;;;953.45;874.70;;;26.50;99.90;;;;;;5089626;28;20129;-81
2022/07/03 08:44:49;;;;;;;923.97;849.83;;;25.20;99.90;;;;;;5055619;28;20377;-86
2022/07/03 08:47:16;;;;;;;900.38;828.90;;;26.30;99.90;;;;;;5073613;28;20047;-81
2022/07/03 08:49:44;;;;;;;893.33;823.50;;;26.50;99.90;;;;;;5070245;28;20049;-87
2022/07/03 08:52:11;;;;;;;900.38;828.72;;;25.90;99.90;;;;;;5069334;28;20044;-80
2022/07/03 08:54:37;;;;;;;923.55;849.03;;;26.30;99.90;;;;;;5070711;28;20045;-80
2022/07/03 08:57:05;;;;;;;968.03;885.70;;;27.90;99.90;;;;;;5063548;28;20037;-82
2022/07/03 08:59:38;;;;;;;933.65;851.35;;;27.50;99.90;;;;;;5032278;28;20053;-80
2022/07/03 09:02:05;;;;;;;983.50;893.17;;;29.00;99.90;;;;;;5049912;28;20104;-83
2022/07/03 09:04:34;;;;;;;;;;;30.10;99.90;;;;;;5066298;28;20148;-80
2022/07/03 09:07:00;;;;;;;972.30;885.97;;;30.10;99.90;;;;;;5068475;28;19944;-80
2022/07/03 09:09:27;;;;;;;1009.00;911.70;;;28.40;99.90;;;;;;5073672;28;20056;-81
2022/07/03 09:11:53;;;;;;;1021.50;921.97;;;28.40;99.90;;;;;;5072987;28;20500;-80
2022/07/03 09:14:20;;;;;;;1146.15;970.35;;;28.70;99.90;;;;;;5073742;28;20285;-80
2022/07/03 09:16:46;;;;;;;1048.07;947.10;;;29.20;99.90;;;;;;5070671;28;20526;-81
2022/07/03 09:19:11;;;;;;;1024.13;925.05;;;28.50;99.90;;;;;;5089699;28;20399;-81
2022/07/03 09:21:41;;;;;;;1053.97;948.53;;;29.30;99.90;;;;;;5070804;28;20044;-81
2022/07/03 09:24:09;;;;;;;574.10;526.10;;;30.40;99.90;;;;;;5086295;28;20127;-80
2022/07/03 09:26:36;;;;;;;594.50;545.08;;;29.30;99.90;;;;;;5067367;28;20103;-82
2022/07/03 09:29:03;;;;;;;594.15;541.63;;;30.40;99.90;;;;;;5073936;28;20059;-82
2022/07/03 09:31:30;;;;;;;;;;;30.70;99.90;;;;;;5105477;28;20512;-81
2022/07/03 09:34:08;;;;;;;373.45;350.38;;;30.70;99.90;;;;;;5056624;28;20015;-81
2022/07/03 09:36:38;;;;;;;484.30;448.88;;;31.30;99.90;;;;;;5098796;28;20127;-81
2022/07/03 09:39:29;;;;;;;827.50;749.63;;;31.90;99.90;;;;;;5072645;28;20063;-81
2022/07/03 09:42:01;;;;;;;572.47;528.05;;;32.30;99.90;;;;;;5074433;28;20098;-81
2022/07/03 09:44:38;;;;;;;699.35;637.20;;;31.90;99.90;;;;;;5072887;28;20048;-81
2022/07/03 09:47:23;;;;;;;608.33;562.70;;;33.00;99.90;;;;;;5072622;28;20046;-81
2022/07/03 09:49:57;;;;;;;827.92;749.15;;;33.40;99.90;;;;;;5070794;28;20177;-81
2022/07/03 09:52:35;;;;;;;698.33;642.72;;;31.20;99.90;;;;;;5102678;28;20047;-89
2022/07/03 09:55:11;;;;;;;;;;;31.50;99.90;;;;;;5067928;28;20522;-79
2022/07/03 09:57:41;;;;;;;619.58;572.13;;;31.40;99.90;;;;;;5056850;28;19951;-81
2022/07/03 10:00:22;;;;;;;681.67;627.58;;;32.70;99.90;;;;;;5072287;28;20138;-82
2022/07/03 10:02:59;;;;;;;615.65;569.40;;;29.60;99.90;;;;;;5077259;28;20098;-81
2022/07/03 10:05:30;;;;;;;989.92;884.97;;;30.00;99.90;;;;;;5069451;28;20036;-88
2022/07/03 10:07:57;;;;;;;663.63;608.20;;;29.60;99.90;;;;;;5068439;28;20067;-82
2022/07/03 10:10:24;;;;;;;918.58;829.80;;;30.00;99.90;;;;;;5071956;28;20040;-87
2022/07/03 10:12:52;;;;;;;920.45;830.47;;;30.10;99.90;;;;;;5066812;28;20298;-85
2022/07/03 10:15:18;;;;;;;;;;;28.10;99.90;;;;;;5103602;28;20048;-81
2022/07/03 10:17:48;;;;;;;930.33;848.58;;;27.80;99.90;;;;;;5066668;28;19921;-82
2022/07/03 10:20:14;;;;;;;997.35;903.88;;;28.10;99.90;;;;;;5070902;28;20110;-82
2022/07/03 10:22:46;;;;;;;850.35;787.28;;;27.80;99.90;;;;;;5065487;28;20032;-81
2022/07/03 10:25:14;;;;;;;884.75;809.42;;;27.50;99.90;;;;;;5066016;28;20057;-81
2022/07/03 10:27:40;;;;;;;1172.72;999.90;;;27.80;99.90;;;;;;5070775;28;20055;-81
2022/07/03 10:30:06;;;;;;;1003.92;912.00;;;25.80;99.90;;;;;;5088015;28;20052;-80
2022/07/03 10:32:33;;;;;;;910.30;837.20;;;26.30;99.90;;;;;;5064140;28;20049;-82
2022/07/03 10:35:01;;;;;;;;;;;26.50;99.90;;;;;;5063652;28;20076;-81
2022/07/03 10:37:33;;;;;;;934.88;858.60;;;27.20;99.90;;;;;;5068273;28;19925;-89
2022/07/03 10:46:17;;;;;;;969.65;883.08;;;29.30;99.90;;;;;;5057882;28;20138;-80
2022/07/03 10:49:01;;;;;;;966.17;878.72;;;28.60;99.90;;;;;;5065725;28;20454;-81
2022/07/03 10:51:31;;;;;;;983.38;890.90;;;26.80;99.90;;;;;;5062318;28;20052;-90
2022/07/03 10:54:15;;;;;;;907.25;833.15;;;26.20;99.90;;;;;;5065666;28;20504;-81
2022/07/03 10:57:00;;;;;;;920.08;847.63;;;26.60;99.90;;;;;;5070252;28;20074;-81
2022/07/03 10:59:31;;;;;;;852.13;788.20;;;27.60;99.90;;;;;;5059055;28;20052;-81
2022/07/03 11:02:26;;;;;;;942.08;865.92;;;27.70;99.90;;;;;;5068682;28;20045;-81
2022/07/03 11:04:59;;;;;;;939.75;864.67;;;26.70;99.90;;;;;;5066999;28;20052;-84
2022/07/03 11:07:32;;;;;;;965.25;886.58;;;26.90;99.90;;;;;;5062011;28;20053;-81
2022/07/03 11:10:13;;;;;;;908.55;836.40;;;27.90;99.90;;;;;;5069364;28;20075;-82
2022/07/03 11:12:56;;;;;;;1999.90;995.47;;;28.10;99.90;;;;;;5066491;28;20048;-83
2022/07/03 11:15:29;;;;;;;937.53;863.42;;;25.50;99.90;;;;;;5066200;28;20501;-81
2022/07/03 11:18:17;;;;;;;941.83;864.60;;;26.60;99.90;;;;;;5068699;28;20121;-82
2022/07/03 11:20:43;;;;;;;915.95;837.33;;;28.00;99.90;;;;;;5062162;28;20098;-82
2022/07/03 11:23:27;;;;;;;922.47;847.78;;;28.50;99.90;;;;;;5101773;28;20048;-82
2022/07/03 11:25:55;;;;;;;910.05;839.60;;;27.50;99.90;;;;;;5089630;28;20049;-83
2022/07/03 11:28:33;;;;;;;1115.28;999.33;;;27.90;99.90;;;;;;5070170;28;20048;-83
2022/07/03 11:31:11;;;;;;;909.53;837.45;;;26.10;99.90;;;;;;5049015;28;20045;-81
2022/07/03 11:33:46;;;;;;;;;;;26.00;99.90;;;;;;5055576;28;20127;-81
2022/07/03 11:36:26;;;;;;;1066.70;954.45;;;25.90;99.90;;;;;;5052655;28;19928;-82
2022/07/03 11:38:55;;;;;;;1038.65;945.08;;;25.40;99.90;;;;;;5067966;28;20189;-81
2022/07/03 11:41:22;;;;;;;1082.32;981.67;;;26.60;99.90;;;;;;5063171;28;20044;-82
2022/07/03 11:43:49;;;;;;;1019.47;931.30;;;26.10;99.90;;;;;;5081535;28;20056;-82
2022/07/03 11:46:19;;;;;;;;;;;26.10;99.90;;;;;;5067992;28;20044;-81
2022/07/03 11:48:45;;;;;;;1020.55;933.03;;;25.40;99.90;;;;;;5062347;28;20369;-87
2022/07/03 11:51:11;;;;;;;1041.13;947.22;;;25.10;99.90;;;;;;5067331;28;20059;-84
2022/07/03 11:53:38;;;;;;;1037.35;946.85;;;25.70;99.90;;;;;;5070224;28;20056;-90
2022/07/03 11:56:09;;;;;;;989.45;906.42;;;26.10;99.90;;;;;;5071009;28;20055;-82
2022/07/03 11:58:45;;;;;;;1281.05;959.22;;;25.80;99.90;;;;;;5067563;28;20071;-83
2022/07/03 12:01:38;;;;;;;1090.40;985.42;;;25.20;99.90;;;;;;5052520;28;20161;-82
2022/07/03 12:04:32;;;;;;;1064.22;965.63;;;26.10;99.90;;;;;;5060785;28;20046;-86
2022/07/03 12:06:59;;;;;;;1059.00;963.47;;;26.40;99.90;;;;;;5037524;28;20041;-86
2022/07/03 12:09:36;;;;;;;1041.13;947.03;;;26.90;99.90;;;;;;5068358;28;20093;-88
2022/07/03 12:12:11;;;;;;;1002.78;915.85;;;27.00;99.90;;;;;;5086907;28;20068;-89
2022/07/03 12:14:44;;;;;;;1012.70;921.00;;;26.90;99.90;;;;;;5073682;28;20056;-88
2022/07/03 12:17:15;;;;;;;1054.07;961.75;;;26.10;99.90;;;;;;5086027;28;20048;-83
2022/07/03 12:20:00;;;;;;;1044.38;950.20;;;26.10;99.90;;;;;;5069749;28;20118;-82
2022/07/03 12:22:29;;;;;;;994.97;909.90;;;27.10;99.90;;;;;;5065879;28;20515;-83
2022/07/03 12:24:55;;;;;;;1439.97;996.72;;;27.60;99.90;;;;;;5064752;28;20123;-80
2022/07/03 12:27:21;;;;;;;987.05;906.75;;;26.80;99.90;;;;;;5069756;28;20053;-84
2022/07/03 12:29:48;;;;;;;1006.70;920.28;;;27.20;99.90;;;;;;5066728;28;20049;-88
2022/07/03 12:32:16;;;;;;;1025.75;935.58;;;27.50;99.90;;;;;;5064104;28;20048;-82